Time;durP1;ratioP1;P1;durP2;ratioP2;P2;SDS_P1;SDS_P2;PMS_P1;PMS_P2;Temp;Humidity;BMP_temperature;BMP_pressure;BME280_temperature;BME280_humidity;BME280_pressure;Samples;Min_cycle;Max_cycle;Signal;HPM_P1;HPM_P2
2022/10/14 00:03:07;;;;;;;;;;;;;;;;;;10523248;28;19924;-76
2022/10/14 00:08:09;;;;;;;;;;;;;;;;;;10524123;28;20407;-77
2022/10/14 00:13:12;;;;;;;;;;;;;;;;;;10521420;28;19941;-77
2022/10/14 00:18:14;;;;;;;;;;;;;;;;;;10521564;28;19935;-74
2022/10/14 00:23:17;;;;;;;;;;;;;;;;;;10503015;28;20015;-75
2022/10/14 00:28:19;;;;;;;;;;;;;;;;;;10527593;28;20013;-75
2022/10/14 00:33:22;;;;;;;;;;;;;;;;;;10517196;28;19978;-75
2022/10/14 00:38:24;;;;;;;;;;;;;;;;;;10529764;28;19983;-75
2022/10/14 00:43:27;;;;;;;;;;;;;;;;;;10519331;28;19928;-76
2022/10/14 00:48:29;;;;;;;;;;;;;;;;;;10505678;28;19924;-75
2022/10/14 00:53:32;;;;;;;;;;;;;;;;;;10521037;28;19924;-75
2022/10/14 00:58:34;;;;;;;;;;;;;;;;;;10517755;28;19931;-75
2022/10/14 01:03:37;;;;;;;;;;;;;;;;;;10523959;28;20289;-75
2022/10/14 01:08:39;;;;;;;;;;;;;;;;;;10523674;28;19924;-75
2022/10/14 01:13:42;;;;;;;;;;;;;;;;;;10519040;28;19924;-75
2022/10/14 01:18:44;;;;;;;;;;;;;;;;;;10525153;28;19935;-75
2022/10/14 01:23:47;;;;;;;;;;;;;;;;;;10519442;28;19928;-75
2022/10/14 01:28:49;;;;;;;;;;;;;;;;;;10515927;28;19938;-75
2022/10/14 01:33:52;;;;;;;;;;;;;;;;;;10515993;28;20476;-75
2022/10/14 01:38:55;;;;;;;;;;;;;;;;;;10518145;28;20304;-75
2022/10/14 01:43:57;;;;;;;;;;;;;;;;;;10518378;28;19924;-75
2022/10/14 01:49:00;;;;;;;;;;;;;;;;;;10519995;28;19931;-75
2022/10/14 01:54:03;;;;;;;;;;;;;;;;;;10516952;28;19939;-75
2022/10/14 01:59:06;;;;;;;;;;;;;;;;;;10511900;28;20022;-74
2022/10/14 02:04:08;;;;;;;;;;;;;;;;;;10524084;28;19924;-74
2022/10/14 02:09:11;;;;;;;;;;;;;;;;;;10517021;28;19931;-74
2022/10/14 02:14:13;;;;;;;;;;;;;;;;;;10517661;28;19924;-74
2022/10/14 02:19:16;;;;;;;;;;;;;;;;;;10512317;28;19930;-74
2022/10/14 02:24:18;;;;;;;;;;;;;;;;;;10512427;28;19924;-74
2022/10/14 02:29:21;;;;;;;;;;;;;;;;;;10517381;28;19924;-74
2022/10/14 02:34:23;;;;;;;;;;;;;;;;;;10516430;28;20426;-74
2022/10/14 02:39:28;;;;;;;;;;;;;;;;;;10522435;28;19931;-76
2022/10/14 02:44:31;;;;;;;;;;;;;;;;;;10517114;28;19943;-72
2022/10/14 02:49:33;;;;;;;;;;;;;;;;;;10523590;28;20265;-74
2022/10/14 02:54:36;;;;;;;;;;;;;;;;;;10505047;28;20238;-76
2022/10/14 02:59:38;;;;;;;;;;;;;;;;;;10523824;28;19924;-76
2022/10/14 03:04:41;;;;;;;;;;;;;;;;;;10530178;28;19928;-74
2022/10/14 03:09:43;;;;;;;;;;;;;;;;;;10527743;28;19931;-76
2022/10/14 03:14:46;;;;;;;;;;;;;;;;;;10524364;28;19946;-76
2022/10/14 03:19:48;;;;;;;;;;;;;;;;;;10529499;28;20361;-74
2022/10/14 03:24:51;;;;;;;;;;;;;;;;;;10522434;28;19932;-75
2022/10/14 03:29:53;;;;;;;;;;;;;;;;;;10526747;28;19931;-74
2022/10/14 03:34:56;;;;;;;;;;;;;;;;;;10526578;28;20272;-75
2022/10/14 03:39:58;;;;;;;;;;;;;;;;;;10524362;28;19924;-75
2022/10/14 03:45:01;;;;;;;;;;;;;;;;;;10523954;28;19932;-75
2022/10/14 03:50:03;;;;;;;;;;;;;;;;;;10522319;28;19928;-75
2022/10/14 03:55:06;;;;;;;;;;;;;;;;;;10499740;28;20308;-75
2022/10/14 04:00:09;;;;;;;;;;;;;;;;;;10516384;28;19956;-74
2022/10/14 04:05:11;;;;;;;;;;;;;;;;;;10520441;28;19939;-74
2022/10/14 04:10:14;;;;;;;;;;;;;;;;;;10517548;28;19928;-74
2022/10/14 04:15:17;;;;;;;;;;;;;;;;;;10517293;28;19932;-74
2022/10/14 04:20:19;;;;;;;;;;;;;;;;;;10520729;28;20571;-74
2022/10/14 04:25:22;;;;;;;;;;;;;;;;;;10515442;28;19928;-74
2022/10/14 04:30:24;;;;;;;;;;;;;;;;;;10522848;28;19924;-73
2022/10/14 04:35:26;;;;;;;;;;;;;;;;;;10527029;28;19924;-75
2022/10/14 04:40:29;;;;;;;;;;;;;;;;;;10516239;28;19947;-76
2022/10/14 04:45:32;;;;;;;;;;;;;;;;;;10521446;28;19924;-76
2022/10/14 04:50:34;;;;;;;;;;;;;;;;;;10511904;28;19931;-73
2022/10/14 04:55:37;;;;;;;;;;;;;;;;;;10514109;28;19924;-74
2022/10/14 05:00:39;;;;;;;;;;;;;;;;;;10499100;28;19932;-74
2022/10/14 05:05:41;;;;;;;;;;;;;;;;;;10519348;28;19932;-74
2022/10/14 05:10:44;;;;;;;;;;;;;;;;;;10519985;28;19924;-75
2022/10/14 05:15:46;;;;;;;;;;;;;;;;;;10510937;28;19932;-74
2022/10/14 05:20:49;;;;;;;;;;;;;;;;;;10517307;28;20091;-74
2022/10/14 05:25:52;;;;;;;;;;;;;;;;;;10515088;28;19924;-74
2022/10/14 05:30:54;;;;;;;;;;;;;;;;;;10515587;28;20118;-75
2022/10/14 05:35:57;;;;;;;;;;;;;;;;;;10519068;28;19932;-74
2022/10/14 05:41:00;;;;;;;;;;;;;;;;;;10498549;28;20396;-76
2022/10/14 05:46:13;;;;;;;;;;;;;;;;;;10520635;28;19924;-74
2022/10/14 05:51:19;;;;;;;;;;;;;;;;;;10523824;28;19958;-74
2022/10/14 05:56:22;;;;;;;;;;;;;;;;;;10515687;28;20055;-75
2022/10/14 06:01:24;;;;;;;;;;;;;;;;;;10517267;28;19931;-75
2022/10/14 06:06:27;;;;;;;;;;;;;;;;;;10515635;28;19939;-75
2022/10/14 06:11:30;;;;;;;;;;;;;;;;;;10514685;28;19932;-77
2022/10/14 06:16:32;;;;;;;;;;;;;;;;;;10515669;28;19936;-76
2022/10/14 06:21:35;;;;;;;;;;;;;;;;;;10513140;28;19928;-77
2022/10/14 06:26:38;;;;;;;;;;;;;;;;;;10512032;28;19928;-74
2022/10/14 06:31:40;;;;;;;;;;;;;;;;;;10514807;28;19928;-74
2022/10/14 06:36:43;;;;;;;;;;;;;;;;;;10514046;28;19971;-75
2022/10/14 06:41:46;;;;;;;;;;;;;;;;;;10501787;28;19939;-74
2022/10/14 06:46:49;;;;;;;;;;;;;;;;;;10507830;28;20262;-76
2022/10/14 06:51:51;;;;;;;;;;;;;;;;;;10490815;28;19928;-75
2022/10/14 06:56:54;;;;;;;;;;;;;;;;;;10507811;28;20263;-76
2022/10/14 07:01:56;;;;;;;;;;;;;;;;;;10504825;28;19939;-76
2022/10/14 07:06:59;;;;;;;;;;;;;;;;;;10498510;28;20451;-76
2022/10/14 07:12:11;;;;;;;;;;;;;;;;;;10500386;28;20035;-75
2022/10/14 07:17:14;;;;;;;;;;;;;;;;;;10499195;28;19928;-76
2022/10/14 07:22:27;;;;;;;;;;;;;;;;;;10493837;28;20762;-75
2022/10/14 07:27:29;;;;;;;;;;;;;;;;;;10502765;28;19924;-76
2022/10/14 07:32:32;;;;;;;;;;;;;;;;;;10496505;28;19954;-76
2022/10/14 07:37:35;;;;;;;;;;;;;;;;;;10514478;28;20138;-76
2022/10/14 07:42:38;;;;;;;;;;;;;;;;;;10505097;28;19958;-75
2022/10/14 07:47:40;;;;;;;;;;;;;;;;;;10509111;28;19935;-74
2022/10/14 07:52:42;;;;;;;;;;;;;;;;;;10499248;28;19928;-75
2022/10/14 07:57:45;;;;;;;;;;;;;;;;;;10505711;28;19928;-75
2022/10/14 08:02:47;;;;;;;;;;;;;;;;;;10487631;28;20035;-74
2022/10/14 08:08:57;;;;;;;4.72;1.65;;;;;;;;;;10550569;27;20313;-77
2022/10/14 08:14:00;;;;;;;3.65;1.70;;;;;;;;;;10414743;28;20589;-75
2022/10/14 08:19:05;;;;;;;4.28;1.80;;;;;;;;;;10404872;28;145160;-76
2022/10/14 08:24:16;;;;;;;4.00;1.95;;;;;;;;;;10407061;28;20039;-75
2022/10/14 08:29:21;;;;;;;3.83;1.67;;;;;;;;;;10407326;28;21268;-78
2022/10/14 08:34:24;;;;;;;4.65;1.90;;;;;;;;;;10406235;28;20041;-77
2022/10/14 08:39:31;;;;;;;2.30;1.88;;;;;;;;;;10401775;28;20048;-77
2022/10/14 08:44:39;;;;;;;3.50;1.50;;;;;;;;;;10410143;28;20040;-76
2022/10/14 08:49:50;;;;;;;3.60;1.40;;;;;;;;;;10410441;28;20045;-77
2022/10/14 08:55:19;;;;;;;1.85;1.63;;;;;;;;;;10415018;28;20045;-78
2022/10/14 09:00:22;;;;;;;1.80;1.70;;;;;;;;;;10407415;28;20045;-79
2022/10/14 09:05:26;;;;;;;4.05;1.65;;;;;;;;;;10409204;28;20437;-78
2022/10/14 09:10:32;;;;;;;2.30;1.50;;;;;;;;;;10408127;28;20033;-77
2022/10/14 09:15:35;;;;;;;2.67;1.42;;;;;;;;;;10401652;28;20045;-78
2022/10/14 09:20:38;;;;;;;2.08;1.10;;;;;;;;;;10379470;28;20053;-77
2022/10/14 09:25:45;;;;;;;1.67;1.00;;;;;;;;;;10384992;28;20037;-78
2022/10/14 09:30:48;;;;;;;2.15;1.02;;;;;;;;;;10376280;28;20402;-80
2022/10/14 09:35:51;;;;;;;1.33;1.23;;;;;;;;;;10382167;28;20026;-78
2022/10/14 09:40:58;;;;;;;1.30;1.20;;;;;;;;;;10382005;28;20052;-79
2022/10/14 09:46:02;;;;;;;2.63;1.50;;;;;;;;;;10377983;28;20033;-76
2022/10/14 09:51:06;;;;;;;2.15;1.95;;;;;;;;;;10376963;28;20038;-77
2022/10/14 09:56:10;;;;;;;2.60;1.40;;;;;;;;;;10375192;28;20175;-78
2022/10/14 10:01:17;;;;;;;2.83;1.25;;;;;;;;;;10377010;28;20048;-78
2022/10/14 10:06:22;;;;;;;4.03;1.50;;;;;;;;;;10369797;28;20382;-78
2022/10/14 10:11:32;;;;;;;1.52;1.40;;;;;;;;;;10368606;28;20049;-77
2022/10/14 10:16:35;;;;;;;1.55;1.45;;;;;;;;;;10379955;28;20037;-78
2022/10/14 10:21:37;;;;;;;1.80;1.70;;;;;;;;;;10382099;28;20088;-78
2022/10/14 10:26:41;;;;;;;1.65;1.55;;;;;;;;;;10373267;28;20502;-78
2022/10/14 10:31:50;;;;;;;2.28;1.80;;;;;;;;;;10379439;28;20045;-78
2022/10/14 10:36:56;;;;;;;2.75;1.73;;;;;;;;;;10377521;28;20055;-77
2022/10/14 10:42:04;;;;;;;1.40;1.30;;;;;;;;;;10375827;28;20041;-77
2022/10/14 10:47:13;;;;;;;3.10;1.77;;;;;;;;;;10383296;28;21361;-77
2022/10/14 10:52:22;;;;;;;3.00;1.90;;;;;;;;;;10380195;28;20069;-78
2022/10/14 10:57:34;;;;;;;2.13;1.50;;;;;;;;;;10386329;28;20099;-77
2022/10/14 11:02:53;;;;;;;2.38;1.60;;;;;;;;;;10378724;28;20077;-77
2022/10/14 11:13:23;;;;;;;1.70;1.60;;;;;;;;;;10372304;28;20073;-78
2022/10/14 11:18:35;;;;;;;1.90;1.40;;;;;;;;;;10372118;28;20119;-78
2022/10/14 11:23:46;;;;;;;2.25;1.42;;;;;;;;;;10375810;28;20140;-77
2022/10/14 11:28:55;;;;;;;2.10;1.60;;;;;;;;;;10372118;28;20154;-78
2022/10/14 11:34:02;;;;;;;2.35;1.50;;;;;;;;;;10370035;28;20133;-77
2022/10/14 11:39:10;;;;;;;1.58;1.15;;;;;;;;;;10374336;28;20052;-77
2022/10/14 11:44:17;;;;;;;2.63;1.00;;;;;;;;;;10372190;28;20298;-77
2022/10/14 11:49:22;;;;;;;3.47;1.00;;;;;;;;;;10366744;28;20051;-77
2022/10/14 11:54:29;;;;;;;2.50;1.60;;;;;;;;;;10367210;28;20424;-74
2022/10/14 11:59:37;;;;;;;1.85;1.10;;;;;;;;;;10383535;28;20072;-75
2022/10/14 12:04:41;;;;;;;2.33;1.10;;;;;;;;;;10372441;28;20125;-74
2022/10/14 12:09:48;;;;;;;2.03;1.00;;;;;;;;;;10390689;28;20056;-75
2022/10/14 12:14:55;;;;;;;1.63;0.98;;;;;;;;;;10376847;28;20403;-74
2022/10/14 12:20:01;;;;;;;1.67;0.90;;;;;;;;;;10374074;28;20034;-75
2022/10/14 12:25:07;;;;;;;1.83;1.10;;;;;;;;;;10378726;28;20522;-74
2022/10/14 12:30:25;;;;;;;2.75;1.13;;;;;;;;;;10376331;28;20199;-76
2022/10/14 12:35:42;;;;;;;2.47;0.70;;;;;;;;;;10381400;28;20093;-74
2022/10/14 12:40:48;;;;;;;2.53;0.93;;;;;;;;;;10370919;28;20418;-75
2022/10/14 12:45:58;;;;;;;2.40;1.00;;;;;;;;;;10375949;28;20113;-78
2022/10/14 12:51:12;;;;;;;2.35;1.20;;;;;;;;;;10382471;28;20141;-78
2022/10/14 12:56:28;;;;;;;1.45;0.90;;;;;;;;;;10394030;28;20056;-77
2022/10/14 13:01:31;;;;;;;19.10;9.32;;;;;;;;;;10385600;28;20426;-77
2022/10/14 13:06:39;;;;;;;3.72;1.17;;;;;;;;;;10386517;28;20128;-77
2022/10/14 13:11:44;;;;;;;0.70;0.70;;;;;;;;;;10387474;28;20072;-77
2022/10/14 13:17:05;;;;;;;3.53;0.80;;;;;;;;;;10397383;28;20131;-77
2022/10/14 13:22:32;;;;;;;2.97;1.05;;;;;;;;;;10386937;28;20061;-77
2022/10/14 13:27:41;;;;;;;2.83;1.13;;;;;;;;;;10391058;28;20080;-77
2022/10/14 13:32:47;;;;;;;1.30;1.05;;;;;;;;;;10389024;28;20042;-78
2022/10/14 13:37:54;;;;;;;2.00;1.00;;;;;;;;;;10390027;28;20037;-78
2022/10/14 13:42:59;;;;;;;2.33;0.77;;;;;;;;;;10405162;28;20428;-76
2022/10/14 13:48:02;;;;;;;1.63;1.00;;;;;;;;;;10392209;28;20041;-77
2022/10/14 13:53:05;;;;;;;1.55;1.17;;;;;;;;;;10389161;28;20523;-77
2022/10/14 13:58:14;;;;;;;2.08;1.10;;;;;;;;;;10387614;28;20045;-77
2022/10/14 14:03:20;;;;;;;1.95;0.90;;;;;;;;;;10382307;28;20171;-77
2022/10/14 14:08:24;;;;;;;1.92;1.00;;;;;;;;;;10384953;28;20038;-77
2022/10/14 14:13:47;;;;;;;3.95;1.30;;;;;;;;;;10375748;28;20540;-77
2022/10/14 14:18:58;;;;;;;1.77;0.90;;;;;;;;;;10379073;28;20178;-77
2022/10/14 14:24:18;;;;;;;1.85;0.98;;;;;;;;;;10370714;28;20049;-76
2022/10/14 14:29:24;;;;;;;1.80;1.20;;;;;;;;;;10376912;28;20511;-76
2022/10/14 14:34:28;;;;;;;1.80;0.73;;;;;;;;;;10377235;28;20507;-77
2022/10/14 14:39:30;;;;;;;1.75;1.08;;;;;;;;;;10388366;28;20124;-78
2022/10/14 14:44:35;;;;;;;3.75;1.80;;;;;;;;;;10381785;28;20536;-77
2022/10/14 14:49:38;;;;;;;2.58;1.60;;;;;;;;;;10377841;28;20041;-77
2022/10/14 14:54:44;;;;;;;4.53;1.70;;;;;;;;;;10390962;28;20049;-77
2022/10/14 14:59:52;;;;;;;6.32;3.13;;;;;;;;;;10381151;28;20360;-77
2022/10/14 15:05:02;;;;;;;3.70;1.60;;;;;;;;;;10378415;28;20064;-75
2022/10/14 15:10:07;;;;;;;7.63;1.90;;;;;;;;;;10380239;28;20081;-74
2022/10/14 15:15:25;;;;;;;4.75;1.70;;;;;;;;;;10381644;28;20221;-77
2022/10/14 15:20:29;;;;;;;3.65;1.88;;;;;;;;;;10374472;28;20046;-78
2022/10/14 15:25:32;;;;;;;6.88;3.53;;;;;;;;;;10403334;28;20068;-76
2022/10/14 15:30:50;;;;;;;3.30;1.55;;;;;;;;;;10387275;28;20042;-78
2022/10/14 15:35:57;;;;;;;7.35;2.00;;;;;;;;;;10389604;28;20041;-78
2022/10/14 15:40:59;;;;;;;11.00;2.97;;;;;;;;;;10387670;28;20040;-78
2022/10/14 15:51:32;;;;;;;3.38;2.15;;;;;;;;;;10363093;28;20462;-77
2022/10/14 15:56:35;;;;;;;5.50;2.07;;;;;;;;;;10391371;28;20045;-77
2022/10/14 16:01:40;;;;;;;4.03;1.63;;;;;;;;;;10381430;28;20118;-77
2022/10/14 16:06:43;;;;;;;3.63;1.40;;;;;;;;;;10381159;28;20087;-78
2022/10/14 16:11:45;;;;;;;5.20;2.50;;;;;;;;;;10388268;28;20499;-77
2022/10/14 16:16:49;;;;;;;4.90;2.30;;;;;;;;;;10393930;28;20467;-78
2022/10/14 16:21:52;;;;;;;6.25;2.13;;;;;;;;;;10399010;28;20122;-77
2022/10/14 16:26:55;;;;;;;2.17;1.15;;;;;;;;;;10398621;28;20125;-78
2022/10/14 16:31:59;;;;;;;3.50;1.60;;;;;;;;;;10402541;28;20064;-77
2022/10/14 16:37:02;;;;;;;2.85;1.77;;;;;;;;;;10395726;28;20044;-77
2022/10/14 16:42:04;;;;;;;4.53;2.13;;;;;;;;;;10394329;28;20175;-77
2022/10/14 16:47:19;;;;;;;8.87;2.23;;;;;;;;;;10391368;28;20066;-76
2022/10/14 16:52:23;;;;;;;6.70;1.50;;;;;;;;;;10393299;28;20536;-75
2022/10/14 16:57:28;;;;;;;3.80;1.40;;;;;;;;;;10405587;28;20037;-76
2022/10/14 17:02:32;;;;;;;3.92;1.73;;;;;;;;;;10409618;28;20057;-77
2022/10/14 17:07:37;;;;;;;6.03;1.95;;;;;;;;;;10402409;28;20581;-77
2022/10/14 17:12:41;;;;;;;1.80;1.05;;;;;;;;;;10400957;28;20045;-77
2022/10/14 17:17:45;;;;;;;4.32;2.47;;;;;;;;;;10400664;28;20040;-77
2022/10/14 17:22:48;;;;;;;5.10;1.83;;;;;;;;;;10403975;28;20061;-76
2022/10/14 17:27:54;;;;;;;6.05;3.10;;;;;;;;;;10401659;28;20026;-77
2022/10/14 17:32:58;;;;;;;5.57;2.30;;;;;;;;;;10403110;28;20450;-77
2022/10/14 17:38:01;;;;;;;5.30;2.50;;;;;;;;;;10395257;28;20132;-77
2022/10/14 17:43:03;;;;;;;6.47;2.72;;;;;;;;;;10392519;28;20065;-77
2022/10/14 17:48:07;;;;;;;6.35;2.63;;;;;;;;;;10396768;28;20424;-77
2022/10/14 17:53:11;;;;;;;12.57;6.35;;;;;;;;;;10401917;28;20057;-77
2022/10/14 17:58:13;;;;;;;;;;;;;;;;;;10386721;28;20073;-78
2022/10/14 18:03:18;;;;;;;7.43;4.07;;;;;;;;;;10392138;28;19951;-76
2022/10/14 18:08:20;;;;;;;4.78;2.30;;;;;;;;;;10387600;28;20567;-78
2022/10/14 18:13:23;;;;;;;7.88;2.65;;;;;;;;;;10392851;28;20045;-76
2022/10/14 18:18:27;;;;;;;3.78;1.88;;;;;;;;;;10398574;28;20102;-76
2022/10/14 18:23:31;;;;;;;4.88;2.00;;;;;;;;;;10390121;28;21987;-78
2022/10/14 18:28:34;;;;;;;;;;;;;;;;;;10387613;28;21298;-78
2022/10/14 18:33:39;;;;;;;7.40;2.95;;;;;;;;;;10386568;28;19925;-78
2022/10/14 18:38:42;;;;;;;3.72;1.70;;;;;;;;;;10380306;28;20036;-79
2022/10/14 18:43:44;;;;;;;4.37;1.73;;;;;;;;;;10385524;28;20140;-79
2022/10/14 18:48:50;;;;;;;3.60;1.90;;;;;;;;;;10379117;28;20045;-78
2022/10/14 18:53:54;;;;;;;3.63;2.03;;;;;;;;;;10385645;28;20044;-78
2022/10/14 18:58:58;;;;;;;6.60;2.25;;;;;;;;;;10385757;28;20037;-78
2022/10/14 19:04:04;;;;;;;4.55;2.38;;;;;;;;;;10381862;28;20128;-78
2022/10/14 19:09:10;;;;;;;5.60;2.25;;;;;;;;;;10389379;28;20041;-78
2022/10/14 19:14:13;;;;;;;2.38;1.30;;;;;;;;;;10393272;28;20041;-78
2022/10/14 19:19:18;;;;;;;3.27;1.87;;;;;;;;;;10394341;28;20037;-77
2022/10/14 19:24:21;;;;;;;4.72;2.22;;;;;;;;;;10393691;28;20558;-77
2022/10/14 19:29:24;;;;;;;3.00;1.90;;;;;;;;;;10401442;28;20127;-77
2022/10/14 19:34:29;;;;;;;3.07;1.97;;;;;;;;;;10400564;28;20065;-77
2022/10/14 19:39:33;;;;;;;2.75;1.67;;;;;;;;;;10393560;28;20048;-78
2022/10/14 19:44:36;;;;;;;5.72;2.65;;;;;;;;;;10399648;28;20095;-78
2022/10/14 19:49:40;;;;;;;5.87;2.70;;;;;;;;;;10396455;28;20037;-78
2022/10/14 19:54:43;;;;;;;3.80;1.52;;;;;;;;;;10380960;28;20149;-78
2022/10/14 19:59:47;;;;;;;6.28;3.05;;;;;;;;;;10379300;28;20774;-77
2022/10/14 20:04:51;;;;;;;5.05;2.53;;;;;;;;;;10391844;28;20057;-78
2022/10/14 20:09:54;;;;;;;5.63;2.30;;;;;;;;;;10390695;28;20046;-78
2022/10/14 20:15:03;;;;;;;4.70;2.53;;;;;;;;;;10383839;28;20053;-77
2022/10/14 20:20:08;;;;;;;4.28;2.17;;;;;;;;;;10397909;28;20855;-77
2022/10/14 20:25:11;;;;;;;4.50;2.33;;;;;;;;;;10386548;28;20044;-77
2022/10/14 20:30:14;;;;;;;7.67;3.03;;;;;;;;;;10380000;28;20529;-77
2022/10/14 20:35:19;;;;;;;3.58;1.95;;;;;;;;;;10382286;28;20870;-76
2022/10/14 20:40:21;;;;;;;5.43;3.08;;;;;;;;;;10384823;28;20048;-76
2022/10/14 20:45:24;;;;;;;4.13;2.30;;;;;;;;;;10380349;28;20217;-78
2022/10/14 20:50:28;;;;;;;4.72;2.60;;;;;;;;;;10386643;28;20069;-77
2022/10/14 20:55:31;;;;;;;4.68;2.70;;;;;;;;;;10381435;28;20111;-78
2022/10/14 21:00:35;;;;;;;4.30;2.37;;;;;;;;;;10388898;28;20034;-77
2022/10/14 21:05:39;;;;;;;3.45;1.90;;;;;;;;;;10383689;28;20052;-76
2022/10/14 21:10:42;;;;;;;5.05;1.80;;;;;;;;;;10382363;28;20040;-77
2022/10/14 21:15:45;;;;;;;3.83;1.65;;;;;;;;;;10405050;28;20052;-78
2022/10/14 21:20:49;;;;;;;3.08;1.27;;;;;;;;;;10396834;28;20042;-77
2022/10/14 21:25:55;;;;;;;6.15;1.67;;;;;;;;;;10391950;28;20751;-77
2022/10/14 21:30:58;;;;;;;1.08;0.90;;;;;;;;;;10397181;28;20406;-77
2022/10/14 21:36:03;;;;;;;1.63;0.90;;;;;;;;;;10401203;28;20065;-77
2022/10/14 21:41:06;;;;;;;2.25;1.45;;;;;;;;;;10396791;28;20458;-75
2022/10/14 21:46:10;;;;;;;2.05;1.33;;;;;;;;;;10397631;28;20069;-76
2022/10/14 21:51:15;;;;;;;5.55;1.42;;;;;;;;;;10391378;28;20481;-75
2022/10/14 21:56:17;;;;;;;3.42;1.88;;;;;;;;;;10396384;28;20204;-75
2022/10/14 22:01:21;;;;;;;2.95;1.33;;;;;;;;;;10389615;28;20076;-75
2022/10/14 22:06:30;;;;;;;4.75;2.30;;;;;;;;;;10397029;28;20129;-75
2022/10/14 22:11:34;;;;;;;4.45;1.80;;;;;;;;;;10389792;28;20037;-75
2022/10/14 22:16:37;;;;;;;3.58;1.90;;;;;;;;;;10399379;28;20100;-75
2022/10/14 22:21:42;;;;;;;3.00;1.60;;;;;;;;;;10407572;28;20068;-75
2022/10/14 22:26:45;;;;;;;3.65;1.60;;;;;;;;;;10404598;28;20041;-76
2022/10/14 22:31:48;;;;;;;1.52;0.93;;;;;;;;;;10397235;28;20073;-75
2022/10/14 22:37:02;;;;;;;2.90;1.57;;;;;;;;;;10397002;28;20455;-76
2022/10/14 22:42:05;;;;;;;4.78;1.60;;;;;;;;;;10397360;28;20038;-79
2022/10/14 22:47:08;;;;;;;2.42;1.60;;;;;;;;;;10391205;28;20486;-75
2022/10/14 22:52:13;;;;;;;4.72;2.22;;;;;;;;;;10388774;28;20046;-75
2022/10/14 22:57:16;;;;;;;3.15;1.60;;;;;;;;;;10391369;28;20045;-75
2022/10/14 23:02:18;;;;;;;1.83;1.10;;;;;;;;;;10390399;28;20507;-75
2022/10/14 23:07:31;;;;;;;3.60;1.70;;;;;;;;;;10383261;28;20041;-74
2022/10/14 23:12:34;;;;;;;3.30;1.50;;;;;;;;;;10393348;28;20574;-75
2022/10/14 23:17:36;;;;;;;5.53;1.67;;;;;;;;;;10394267;28;20048;-74
2022/10/14 23:22:41;;;;;;;1.10;0.82;;;;;;;;;;10396074;28;20422;-75
2022/10/14 23:27:44;;;;;;;2.85;1.58;;;;;;;;;;10396070;28;20049;-75
2022/10/14 23:32:46;;;;;;;1.52;0.95;;;;;;;;;;10391224;28;20054;-75
2022/10/14 23:37:50;;;;;;;5.50;1.75;;;;;;;;;;10389253;28;20050;-74
2022/10/14 23:42:53;;;;;;;2.42;1.25;;;;;;;;;;10395839;28;20052;-74
2022/10/14 23:47:56;;;;;;;2.00;1.03;;;;;;;;;;10384110;28;20052;-76
2022/10/14 23:53:00;;;;;;;4.47;1.27;;;;;;;;;;10391843;28;20804;-76
2022/10/14 23:58:03;;;;;;;;;;;;;;;;;;10385850;28;20038;-74
